Time;durP1;ratioP1;P1;durP2;ratioP2;P2;SDS_P1;SDS_P2;PMS_P1;PMS_P2;Temp;Humidity;BMP_temperature;BMP_pressure;BME280_temperature;BME280_humidity;BME280_pressure;Samples;Min_cycle;Max_cycle;Signal;HPM_P1;HPM_P2
2021/01/23 00:00:54;;;;;;;1999.90;999.90;;;3.00;99.90;;;;;;5039357;28;20446;-94
2021/01/23 00:03:26;;;;;;;1999.90;999.90;;;3.00;99.90;;;;;;5043017;28;20053;-93
2021/01/23 00:06:07;;;;;;;1999.90;999.90;;;3.00;99.90;;;;;;5045261;28;20088;-94
2021/01/23 00:08:44;;;;;;;1999.90;999.90;;;3.00;99.90;;;;;;5047153;28;20080;-94
2021/01/23 00:11:26;;;;;;;1999.90;999.90;;;3.00;99.90;;;;;;5046326;28;20119;-94
2021/01/23 00:13:57;;;;;;;1999.90;999.90;;;3.00;99.90;;;;;;5047820;28;20075;-92
2021/01/23 00:16:28;;;;;;;1999.90;999.90;;;3.00;99.90;;;;;;5047548;28;20050;-93
2021/01/23 00:19:10;;;;;;;1999.90;999.90;;;3.00;99.90;;;;;;5047233;28;20057;-95
2021/01/23 00:22:13;;;;;;;1999.90;999.90;;;2.90;99.90;;;;;;5040451;28;20060;-94
2021/01/23 00:34:29;;;;;;;1999.90;999.90;;;2.90;99.90;;;;;;5039452;28;20103;-93
2021/01/23 00:40:13;;;;;;;1999.90;999.90;;;2.90;99.90;;;;;;5037065;28;20104;-93
2021/01/23 00:42:53;;;;;;;1999.90;999.90;;;2.90;99.90;;;;;;5039377;28;20132;-94
2021/01/23 00:45:23;;;;;;;1999.90;999.90;;;2.90;99.90;;;;;;5037771;28;20049;-93
2021/01/23 00:47:51;;;;;;;1999.90;999.90;;;2.90;99.90;;;;;;5038437;28;20136;-94
2021/01/23 00:50:51;;;;;;;1999.90;999.90;;;2.90;99.90;;;;;;5039090;28;20056;-94
2021/01/23 00:56:34;;;;;;;1999.90;999.90;;;2.90;99.90;;;;;;5036785;28;20053;-93
2021/01/23 00:59:26;;;;;;;1999.90;999.90;;;2.90;99.90;;;;;;5038145;28;20050;-94
2021/01/23 01:03:12;;;;;;;1999.90;999.90;;;2.90;99.90;;;;;;5037000;28;20077;-94
2021/01/23 01:06:47;;;;;;;1999.90;999.90;;;2.90;99.90;;;;;;5036506;28;20053;-93
2021/01/23 01:13:20;;;;;;;1999.90;999.90;;;2.80;99.90;;;;;;5028265;28;20399;-94
2021/01/23 01:16:50;;;;;;;1999.90;999.90;;;2.80;99.90;;;;;;5034543;28;20455;-95
2021/01/23 01:19:35;;;;;;;1999.90;999.90;;;2.80;99.90;;;;;;5037027;28;20141;-95
2021/01/23 01:22:06;;;;;;;1999.90;999.90;;;2.80;99.90;;;;;;5038013;28;20072;-93
2021/01/23 01:25:07;;;;;;;1999.90;999.90;;;2.80;99.90;;;;;;5037915;28;20045;-94
2021/01/23 01:28:12;;;;;;;1999.90;999.90;;;2.80;99.90;;;;;;5036820;28;20056;-93
2021/01/23 01:31:21;;;;;;;1999.90;999.90;;;2.80;99.90;;;;;;5038163;28;20088;-94
2021/01/23 01:34:05;;;;;;;1999.90;999.90;;;2.80;99.90;;;;;;5037789;28;20045;-95
2021/01/23 01:39:42;;;;;;;1999.90;999.90;;;2.70;99.90;;;;;;5030474;28;20059;-94
2021/01/23 01:42:32;;;;;;;1999.90;999.90;;;2.70;99.90;;;;;;5036903;28;20053;-92
2021/01/23 01:45:34;;;;;;;1999.90;999.90;;;2.70;99.90;;;;;;5036670;28;20049;-93
2021/01/23 01:49:03;;;;;;;1999.90;999.90;;;2.70;99.90;;;;;;5037650;28;20630;-94
2021/01/23 02:05:47;;;;;;;1999.90;999.90;;;2.70;99.90;;;;;;4946422;29;20083;-95
2021/01/23 02:08:40;;;;;;;1999.90;999.90;;;2.70;99.90;;;;;;4899721;29;20147;-95
2021/01/23 02:12:10;;;;;;;;;;;;;;;;;;;;;
2021/01/23 02:15:00;;;;;;;1999.90;999.90;;;2.60;99.90;;;;;;4900491;29;20048;-94
2021/01/23 02:17:34;;;;;;;1999.90;999.90;;;2.60;99.90;;;;;;4975796;28;20051;-94
2021/01/23 02:24:06;;;;;;;1999.90;999.90;;;2.70;99.90;;;;;;4875702;29;20139;-92
2021/01/23 02:27:25;;;;;;;1999.90;999.90;;;2.70;99.90;;;;;;4918011;29;20135;-95
2021/01/23 02:30:13;;;;;;;1999.90;999.90;;;2.60;99.90;;;;;;4918320;29;20435;-94
2021/01/23 02:33:06;;;;;;;1999.90;999.90;;;2.60;99.90;;;;;;4918500;29;20063;-93
2021/01/23 02:35:51;;;;;;;1999.90;999.90;;;2.70;99.90;;;;;;4918463;29;20045;-94
2021/01/23 02:38:48;;;;;;;1999.90;999.90;;;2.70;99.90;;;;;;4917696;29;20063;-93
2021/01/23 02:41:18;;;;;;;1999.90;999.90;;;2.70;99.90;;;;;;4917701;29;20066;-94
2021/01/23 02:43:56;;;;;;;1999.90;999.90;;;2.70;99.90;;;;;;4917705;29;20140;-93
2021/01/23 02:50:12;;;;;;;1999.90;999.90;;;2.80;99.90;;;;;;4975481;28;20073;-94
2021/01/23 02:53:29;;;;;;;1999.90;999.90;;;2.80;99.90;;;;;;4975405;28;20062;-93
2021/01/23 03:00:45;;;;;;;1999.90;999.90;;;2.90;99.90;;;;;;4956282;29;20071;-93
2021/01/23 03:07:28;;;;;;;1999.90;999.90;;;3.00;99.90;;;;;;4955609;28;20122;-94
2021/01/23 03:36:42;;;;;;;1999.90;999.90;;;3.20;99.90;;;;;;4855568;29;20073;-96
2021/01/23 03:39:49;;;;;;;;;;;;;;;;;;;;;
2021/01/23 03:46:28;;;;;;;1999.90;999.90;;;3.20;99.90;;;;;;4993546;28;20053;-96
2021/01/23 03:49:05;;;;;;;1999.90;999.90;;;3.30;99.90;;;;;;4994044;28;20054;-95
2021/01/23 03:51:58;;;;;;;1999.90;999.90;;;3.30;99.90;;;;;;4989547;28;20060;-94
2021/01/23 04:30:56;;;;;;;1999.90;999.90;;;3.60;99.90;;;;;;4993579;28;20112;-96
2021/01/23 04:44:45;;;;;;;1999.90;999.90;;;3.70;99.90;;;;;;5015543;28;20048;-95
2021/01/23 09:02:14;;;;;;;1999.90;999.90;;;4.20;99.90;;;;;;5083674;28;20098;-96
2021/01/23 09:04:49;;;;;;;1999.90;999.90;;;4.20;99.90;;;;;;5078845;28;20106;-96
2021/01/23 11:18:38;;;;;;;1999.90;999.90;;;5.10;99.90;;;;;;5095346;28;20066;-94
2021/01/23 11:40:25;;;;;;;1999.90;999.90;;;5.60;99.90;;;;;;4810445;29;20115;-94
2021/01/23 11:43:33;;;;;;;;;;;5.70;99.90;;;;;;4807890;29;20118;-94
2021/01/23 11:46:08;;;;;;;1999.90;999.90;;;5.80;99.90;;;;;;4821161;29;20364;-93
2021/01/23 11:49:18;;;;;;;1999.90;999.90;;;5.80;99.90;;;;;;4917098;29;20063;-93
2021/01/23 12:10:32;;;;;;;1999.90;999.90;;;5.90;99.90;;;;;;4821278;29;20111;-96
2021/01/23 12:17:10;;;;;;;1999.90;999.90;;;5.90;99.90;;;;;;4901091;29;20189;-95
2021/01/23 12:20:12;;;;;;;1999.90;999.90;;;5.90;99.90;;;;;;4903326;28;20093;-96
2021/01/23 12:26:12;;;;;;;1999.90;999.90;;;5.90;99.90;;;;;;4938231;29;20074;-96
2021/01/23 12:32:41;;;;;;;1999.90;999.90;;;5.90;99.90;;;;;;4959453;28;20116;-94
2021/01/23 12:35:23;;;;;;;1999.90;999.90;;;5.90;99.90;;;;;;5017968;28;20060;-96
2021/01/23 12:38:16;;;;;;;1999.90;999.90;;;5.90;99.90;;;;;;5036645;28;20521;-95
2021/01/23 12:41:01;;;;;;;1999.90;999.90;;;5.90;99.90;;;;;;4979287;28;20046;-96
2021/01/23 12:50:57;;;;;;;1999.90;999.90;;;6.00;99.90;;;;;;4979325;28;20488;-93
2021/01/23 12:57:24;;;;;;;1999.90;999.90;;;6.20;99.90;;;;;;4887870;29;20063;-95
2021/01/23 12:59:55;;;;;;;1999.90;999.90;;;6.20;99.90;;;;;;4902080;29;20067;-96
2021/01/23 13:02:29;;;;;;;1999.90;999.90;;;6.20;99.90;;;;;;4973715;28;20055;-93
2021/01/23 13:05:14;;;;;;;;;;;6.20;99.90;;;;;;4978878;28;20062;-95
2021/01/23 13:07:42;;;;;;;1999.90;999.90;;;6.30;99.90;;;;;;5017642;28;19932;-95
2021/01/23 13:10:12;;;;;;;1999.90;999.90;;;6.20;99.90;;;;;;5018065;28;20057;-95
2021/01/23 13:12:41;;;;;;;1999.90;999.90;;;6.20;99.90;;;;;;5018516;28;20088;-95
2021/01/23 13:15:09;;;;;;;1999.90;999.90;;;6.30;99.90;;;;;;5017296;28;20061;-95
2021/01/23 13:17:37;;;;;;;1999.90;999.90;;;6.30;99.90;;;;;;5015174;28;20084;-95
2021/01/23 13:20:06;;;;;;;1999.90;999.90;;;6.20;99.90;;;;;;5059819;28;20052;-95
2021/01/23 13:22:35;;;;;;;1999.90;999.90;;;6.20;99.90;;;;;;5060333;28;20053;-96
2021/01/23 13:25:04;;;;;;;1999.90;999.90;;;6.20;99.90;;;;;;5058975;28;20052;-95
2021/01/23 13:27:33;;;;;;;1999.90;999.90;;;6.30;99.90;;;;;;5058989;28;20057;-94
2021/01/23 13:30:05;;;;;;;1999.90;999.90;;;6.30;99.90;;;;;;5059157;28;20057;-94
2021/01/23 13:32:32;;;;;;;1999.90;999.90;;;6.30;99.90;;;;;;5058144;28;20080;-96
2021/01/23 13:35:07;;;;;;;1999.90;999.90;;;6.30;99.90;;;;;;5057749;28;20136;-96
2021/01/23 13:37:37;;;;;;;;;;;6.30;99.90;;;;;;5059405;28;20057;-94
2021/01/23 13:40:29;;;;;;;;;;;;;;;;;;;;;
2021/01/23 13:47:44;;;;;;;1999.90;999.90;;;6.20;99.90;;;;;;4990125;28;20506;-96
2021/01/23 13:56:01;;;;;;;1999.90;999.90;;;6.20;99.90;;;;;;5626151;23;20050;-95
2021/01/23 14:06:18;;;;;;;1999.90;999.90;;;6.20;99.90;;;;;;5065533;28;20162;-94
2021/01/23 14:08:46;;;;;;;1999.90;999.90;;;6.10;99.90;;;;;;5097712;28;20587;-95
2021/01/23 14:11:21;;;;;;;1999.90;999.90;;;6.10;99.90;;;;;;5097582;28;20071;-93
2021/01/23 14:13:48;;;;;;;1999.90;999.90;;;6.00;99.90;;;;;;5097473;28;20059;-94
2021/01/23 14:16:43;;;;;;;1999.90;999.90;;;6.00;99.90;;;;;;5097198;28;20501;-93
2021/01/23 14:27:44;;;;;;;1999.90;999.90;;;6.00;99.90;;;;;;5065502;28;20501;-94
2021/01/23 14:34:12;;;;;;;1999.90;999.90;;;6.00;99.90;;;;;;5049091;28;20056;-94
2021/01/23 19:10:59;;;;;;;1999.90;999.90;;;4.60;99.90;;;;;;4957392;28;20428;-94
2021/01/23 21:01:03;;;;;;;1999.90;999.90;;;3.70;99.90;;;;;;5018103;28;20092;-93
2021/01/23 21:11:18;;;;;;;;;;;;;;;;;;;;;
2021/01/23 21:21:37;;;;;;;1999.90;999.90;;;3.70;99.90;;;;;;5017606;28;20068;-92
2021/01/23 21:24:36;;;;;;;1999.90;999.90;;;3.70;99.90;;;;;;5010058;28;20615;-93
2021/01/23 21:30:17;;;;;;;1999.90;999.90;;;3.70;99.90;;;;;;4989946;28;20058;-94
2021/01/23 22:13:10;;;;;;;1999.90;999.90;;;3.80;99.90;;;;;;4996760;28;20484;-94
2021/01/23 22:15:50;;;;;;;1999.90;999.90;;;3.80;99.90;;;;;;4998664;28;20065;-94
2021/01/23 22:18:20;;;;;;;1999.90;999.90;;;3.80;99.90;;;;;;4998247;28;20492;-94
2021/01/23 22:21:26;;;;;;;1999.90;999.90;;;3.80;99.90;;;;;;4997533;28;20467;-94
2021/01/23 22:23:59;;;;;;;1999.90;999.90;;;3.80;99.90;;;;;;4998284;28;20054;-94
2021/01/23 22:26:40;;;;;;;1999.90;999.90;;;3.80;99.90;;;;;;4987698;28;20059;-94
2021/01/23 22:29:09;;;;;;;1999.90;999.90;;;3.80;99.90;;;;;;4997218;28;20480;-94
2021/01/23 22:31:37;;;;;;;1999.90;999.90;;;3.80;99.90;;;;;;4996867;28;20058;-94
2021/01/23 22:34:25;;;;;;;1999.90;999.90;;;3.80;99.90;;;;;;4997143;28;20058;-95
2021/01/23 22:36:55;;;;;;;1999.90;999.90;;;3.80;99.90;;;;;;4996860;28;20050;-96
2021/01/23 22:39:33;;;;;;;1999.90;999.90;;;3.80;99.90;;;;;;4997530;28;20051;-94
2021/01/23 22:42:16;;;;;;;;;;;;;;;;;;;;;
